Time;durP1;ratioP1;P1;durP2;ratioP2;P2;SDS_P1;SDS_P2;PMS_P1;PMS_P2;Temp;Humidity;BMP_temperature;BMP_pressure;BME280_temperature;BME280_humidity;BME280_pressure;Samples;Min_cycle;Max_cycle;Signal;HPM_P1;HPM_P2
2022/07/06 00:01:47;;;;;;;9.02;3.20;;;;;;;17.91;68.36;93333.56;2070909;69;20187;-73
2022/07/06 00:04:13;;;;;;;4.85;2.92;;;;;;;17.51;70.97;93335.34;2068327;69;20139;-76
2022/07/06 00:06:39;;;;;;;7.30;3.40;;;;;;;17.17;72.83;93335.22;2068191;69;20156;-76
2022/07/06 00:09:06;;;;;;;5.78;3.45;;;;;;;17.30;71.67;93335.78;2067855;69;20172;-75
2022/07/06 00:11:32;;;;;;;4.18;3.50;;;;;;;17.50;70.77;93346.00;2068449;69;20154;-76
2022/07/06 00:14:00;;;;;;;6.13;3.03;;;;;;;17.57;70.67;93347.00;2068567;69;20168;-75
2022/07/06 00:16:25;;;;;;;5.40;3.75;;;;;;;17.64;69.76;93345.16;2068227;69;20161;-75
2022/07/06 00:18:51;;;;;;;5.47;3.15;;;;;;;17.50;70.26;93348.84;2068408;69;20501;-75
2022/07/06 00:21:17;;;;;;;6.60;3.42;;;;;;;17.61;70.18;93352.13;2068062;69;20171;-76
2022/07/06 00:23:47;;;;;;;8.75;3.22;;;;;;;17.60;70.42;93347.84;2068663;69;20159;-75
2022/07/06 00:26:13;;;;;;;8.00;3.60;;;;;;;17.51;70.88;93352.41;2068429;69;20137;-76
2022/07/06 00:28:40;;;;;;;7.03;3.45;;;;;;;17.56;70.55;93339.09;2068549;69;20512;-75
2022/07/06 00:31:05;;;;;;;9.80;3.50;;;;;;;17.58;70.23;93345.59;2068680;69;20157;-76
2022/07/06 00:33:31;;;;;;;8.50;3.35;;;;;;;17.53;70.77;93333.31;2068536;69;20137;-75
2022/07/06 00:35:58;;;;;;;5.60;3.17;;;;;;;17.63;69.83;93338.00;2068195;69;20144;-75
2022/07/06 00:38:24;;;;;;;4.55;3.15;;;;;;;17.51;70.12;93336.06;2069334;69;20540;-75
2022/07/06 00:40:50;;;;;;;7.22;3.53;;;;;;;17.59;69.40;93335.69;2071702;69;20584;-75
2022/07/06 00:43:17;;;;;;;5.13;2.85;;;;;;;17.58;69.73;93333.50;2071889;69;20136;-75
2022/07/06 00:45:43;;;;;;;6.32;3.28;;;;;;;17.50;70.13;93328.91;2071423;69;20159;-75
2022/07/06 00:48:09;;;;;;;6.53;3.10;;;;;;;17.60;69.62;93325.78;2071158;69;20232;-76
2022/07/06 00:50:35;;;;;;;8.65;3.10;;;;;;;17.48;70.52;93320.28;2071846;69;20148;-75
2022/07/06 00:53:04;;;;;;;7.07;3.00;;;;;;;17.59;69.22;93327.16;2071793;69;20283;-76
2022/07/06 00:55:33;;;;;;;5.75;3.45;;;;;;;17.44;70.08;93320.09;2071262;69;20148;-78
2022/07/06 00:58:01;;;;;;;4.97;3.05;;;;;;;17.68;69.01;93333.94;2068575;69;20147;-79
2022/07/06 01:00:28;;;;;;;4.22;3.00;;;;;;;17.56;70.17;93327.72;2070358;69;20156;-76
2022/07/06 01:02:55;;;;;;;4.20;2.83;;;;;;;17.69;69.93;93319.06;2070956;69;20168;-78
2022/07/06 01:05:23;;;;;;;5.72;2.80;;;;;;;17.64;70.30;93316.66;2071947;69;20182;-77
2022/07/06 01:07:52;;;;;;;7.15;3.30;;;;;;;17.69;68.89;93315.50;2071238;69;20140;-75
2022/07/06 01:10:19;;;;;;;5.78;3.20;;;;;;;17.65;68.89;93316.03;2068353;69;20199;-75
2022/07/06 01:12:47;;;;;;;5.65;3.17;;;;;;;17.61;68.08;93315.88;2071885;69;20633;-78
2022/07/06 01:15:16;;;;;;;6.45;3.30;;;;;;;17.58;68.49;93310.72;2071069;69;20155;-77
2022/07/06 01:17:42;;;;;;;5.05;3.15;;;;;;;17.65;68.19;93307.50;2070974;69;20523;-75
2022/07/06 01:20:12;;;;;;;7.40;3.15;;;;;;;17.73;67.65;93301.41;2071034;69;20164;-75
2022/07/06 01:22:38;;;;;;;5.70;3.50;;;;;;;17.78;67.10;93300.25;2071613;69;20168;-75
2022/07/06 01:25:05;;;;;;;7.38;3.00;;;;;;;17.70;68.15;93299.88;2072041;69;20209;-75
2022/07/06 01:27:34;;;;;;;5.10;2.90;;;;;;;17.66;68.23;93305.38;2071658;69;20224;-76
2022/07/06 01:30:00;;;;;;;8.75;3.00;;;;;;;17.44;69.31;93294.47;2067850;69;20140;-77
2022/07/06 01:32:26;;;;;;;7.10;3.20;;;;;;;17.46;68.54;93303.13;2068386;69;20132;-80
2022/07/06 01:34:54;;;;;;;4.22;3.00;;;;;;;17.51;68.02;93296.22;2068011;69;20795;-77
2022/07/06 01:37:20;;;;;;;6.07;3.03;;;;;;;17.57;67.29;93298.59;2067958;69;20157;-77
2022/07/06 01:39:47;;;;;;;4.45;3.20;;;;;;;17.36;67.94;93296.22;2068345;69;20160;-76
2022/07/06 01:42:12;;;;;;;5.50;2.90;;;;;;;17.30;68.54;93310.91;2071818;69;20156;-77
2022/07/06 01:44:40;;;;;;;4.47;2.90;;;;;;;17.47;67.95;93312.38;2068562;69;20148;-76
2022/07/06 01:47:05;;;;;;;4.75;3.15;;;;;;;17.32;69.14;93315.94;2068577;69;20156;-77
2022/07/06 01:49:31;;;;;;;4.07;3.30;;;;;;;17.25;68.95;93320.63;2071892;69;20144;-76
2022/07/06 01:51:58;;;;;;;10.30;3.50;;;;;;;17.03;70.14;93320.34;2068467;69;20140;-76
2022/07/06 01:54:24;;;;;;;7.63;3.60;;;;;;;17.15;69.36;93314.50;2068525;69;20147;-76
2022/07/06 01:56:49;;;;;;;4.43;3.50;;;;;;;17.24;69.26;93324.88;2068480;69;20140;-76
2022/07/06 01:59:16;;;;;;;7.25;3.17;;;;;;;17.19;69.78;93323.22;2068511;69;20143;-76
2022/07/06 02:01:41;;;;;;;5.68;3.55;;;;;;;17.07;70.43;93309.16;2068476;69;20152;-75
2022/07/06 02:04:07;;;;;;;3.50;3.08;;;;;;;17.12;69.82;93307.97;2068487;69;20144;-76
2022/07/06 02:06:32;;;;;;;7.25;3.38;;;;;;;17.18;69.58;93304.66;2065597;69;20144;-80
2022/07/06 02:08:58;;;;;;;9.27;3.22;;;;;;;17.10;69.92;93304.28;2068501;69;20156;-80
2022/07/06 02:11:25;;;;;;;6.22;2.95;;;;;;;17.00;69.73;93296.03;2067873;69;20241;-79
2022/07/06 02:13:50;;;;;;;7.50;3.20;;;;;;;17.06;69.60;93292.72;2067975;69;20203;-77
2022/07/06 02:16:16;;;;;;;7.07;3.22;;;;;;;16.91;70.09;93292.06;2068452;69;20155;-77
2022/07/06 02:18:42;;;;;;;6.38;3.55;;;;;;;16.70;71.62;93290.34;2067938;69;20307;-76
2022/07/06 02:21:08;;;;;;;5.97;3.75;;;;;;;16.79;71.44;93299.28;2067776;69;20171;-76
2022/07/06 02:23:33;;;;;;;7.22;3.15;;;;;;;16.91;71.23;93297.75;2068503;69;20144;-76
2022/07/06 02:25:59;;;;;;;8.35;3.50;;;;;;;16.90;70.85;93292.69;2067950;69;20532;-76
2022/07/06 02:28:26;;;;;;;8.63;3.28;;;;;;;16.85;70.93;93294.63;2067870;69;20136;-76
2022/07/06 02:30:52;;;;;;;7.65;2.70;;;;;;;16.94;70.28;93290.78;2067890;69;20152;-76
2022/07/06 02:33:18;;;;;;;8.43;3.38;;;;;;;16.97;69.72;93292.34;2068460;69;20544;-76
2022/07/06 02:35:45;;;;;;;6.05;3.42;;;;;;;16.67;71.56;93300.13;2067868;69;20207;-76
2022/07/06 02:38:12;;;;;;;5.38;2.97;;;;;;;16.87;70.15;93297.56;2067870;69;20152;-75
2022/07/06 02:40:38;;;;;;;5.28;3.30;;;;;;;16.90;69.76;93301.22;2067835;69;20575;-79
2022/07/06 02:43:05;;;;;;;9.23;3.60;;;;;;;16.86;69.92;93298.19;2067917;69;20145;-79
2022/07/06 02:45:31;;;;;;;4.35;2.95;;;;;;;16.93;69.49;93308.50;2067907;69;20235;-78
2022/07/06 02:47:57;;;;;;;6.53;3.42;;;;;;;16.44;72.07;93306.84;2067895;69;20677;-76
2022/07/06 02:50:25;;;;;;;5.57;3.47;;;;;;;16.65;71.09;93308.59;2067879;69;20501;-76
2022/07/06 02:52:52;;;;;;;4.00;3.25;;;;;;;16.57;71.40;93315.97;2067797;69;20144;-76
2022/07/06 02:55:18;;;;;;;3.85;2.85;;;;;;;16.65;70.56;93313.53;2065132;69;20168;-77
2022/07/06 02:57:44;;;;;;;7.80;3.45;;;;;;;16.69;70.05;93314.47;2067816;69;20261;-75
2022/07/06 03:00:12;;;;;;;4.88;2.97;;;;;;;16.61;70.46;93319.03;2067858;69;20198;-77
2022/07/06 03:02:39;;;;;;;6.20;3.40;;;;;;;16.41;71.37;93316.66;2067783;69;20631;-79
2022/07/06 03:05:06;;;;;;;6.00;3.55;;;;;;;16.32;72.48;93323.31;2067891;69;20177;-76
2022/07/06 03:07:33;;;;;;;4.35;3.03;;;;;;;16.41;71.56;93330.16;2067766;69;20157;-76
2022/07/06 03:09:59;;;;;;;5.18;3.78;;;;;;;16.43;71.83;93330.22;2068591;69;20148;-76
2022/07/06 03:12:25;;;;;;;4.72;3.38;;;;;;;16.40;71.34;93328.66;2067744;69;20263;-75
2022/07/06 03:14:51;;;;;;;7.07;3.55;;;;;;;16.15;71.90;93330.28;2067804;69;20600;-79
2022/07/06 03:17:17;;;;;;;6.38;3.30;;;;;;;16.42;70.52;93332.34;2068342;69;20674;-79
2022/07/06 03:19:42;;;;;;;6.53;4.05;;;;;;;16.17;72.14;93335.34;2067650;69;20160;-79
2022/07/06 03:22:09;;;;;;;4.45;3.83;;;;;;;16.29;71.52;93335.94;2067630;69;20172;-79
2022/07/06 03:24:36;;;;;;;5.65;3.45;;;;;;;16.21;71.85;93341.94;2067790;69;20136;-77
2022/07/06 03:27:01;;;;;;;6.90;4.05;;;;;;;16.21;71.66;93338.38;2067790;69;20217;-76
2022/07/06 03:29:27;;;;;;;9.68;3.50;;;;;;;16.15;72.65;93330.28;2067702;69;20235;-76
2022/07/06 03:31:54;;;;;;;8.15;3.60;;;;;;;16.29;70.96;93333.09;2068306;69;20132;-76
2022/07/06 03:34:21;;;;;;;7.22;3.70;;;;;;;16.26;71.74;93337.22;2067722;69;20224;-77
2022/07/06 03:36:49;;;;;;;11.88;3.45;;;;;;;16.26;71.01;93342.91;2067590;69;20168;-76
2022/07/06 03:39:15;;;;;;;5.50;3.60;;;;;;;15.58;74.35;93343.63;2067839;69;20141;-79
2022/07/06 03:41:41;;;;;;;5.25;3.75;;;;;;;15.98;72.92;93345.78;2067765;69;20619;-76
2022/07/06 03:44:08;;;;;;;6.68;3.45;;;;;;;15.99;73.23;93347.25;2067813;69;20183;-75
2022/07/06 03:46:34;;;;;;;5.10;3.70;;;;;;;16.10;72.71;93354.19;2067791;69;20211;-76
2022/07/06 03:49:00;;;;;;;5.85;3.75;;;;;;;16.16;71.87;93351.66;2067600;69;20198;-78
2022/07/06 03:51:26;;;;;;;5.50;3.63;;;;;;;16.16;72.10;93350.91;2067614;69;20156;-77
2022/07/06 03:53:52;;;;;;;7.78;3.47;;;;;;;16.25;71.17;93353.53;2067711;69;20224;-77
2022/07/06 03:56:31;;;;;;;8.35;3.58;;;;;;;16.12;72.56;93353.53;2067678;69;20264;-78
2022/07/06 03:59:02;;;;;;;9.15;3.83;;;;;;;16.05;72.74;93352.50;2067710;69;20180;-79
2022/07/06 04:01:32;;;;;;;6.13;3.97;;;;;;;15.47;75.03;93351.63;2064958;69;20133;-78
2022/07/06 04:03:58;;;;;;;4.45;3.70;;;;;;;15.81;74.06;93354.84;2068382;69;20169;-77
2022/07/06 04:06:25;;;;;;;7.47;4.35;;;;;;;15.96;73.42;93359.88;2067604;69;20178;-76
2022/07/06 04:08:52;;;;;;;6.80;3.95;;;;;;;15.90;74.16;93361.69;2067761;69;20176;-76
2022/07/06 04:11:18;;;;;;;6.50;3.85;;;;;;;15.86;74.42;93364.31;2067582;69;20241;-77
2022/07/06 04:13:44;;;;;;;7.25;3.42;;;;;;;16.08;72.88;93364.69;2067711;69;20141;-77
2022/07/06 04:16:10;;;;;;;7.97;3.65;;;;;;;16.04;73.47;93368.09;2067634;69;20280;-77
2022/07/06 04:18:35;;;;;;;5.28;3.75;;;;;;;16.17;72.34;93366.56;2066990;69;20554;-77
2022/07/06 04:21:03;;;;;;;7.35;4.25;;;;;;;16.18;71.92;93374.47;2065235;69;20176;-77
2022/07/06 04:23:30;;;;;;;9.05;4.57;;;;;;;16.16;72.60;93374.38;2064724;69;20141;-76
2022/07/06 04:25:57;;;;;;;6.90;3.47;;;;;;;16.16;72.68;93376.47;2067085;69;20161;-74
2022/07/06 04:28:24;;;;;;;7.18;3.75;;;;;;;16.17;72.83;93375.09;2067536;69;20235;-78
2022/07/06 04:30:51;;;;;;;6.13;3.65;;;;;;;16.14;72.71;93377.13;2069156;69;20163;-78
2022/07/06 04:33:21;;;;;;;9.98;4.30;;;;;;;16.09;73.31;93377.56;2068328;69;20160;-76
2022/07/06 04:35:48;;;;;;;8.07;3.90;;;;;;;16.20;72.72;93383.09;2067562;69;20291;-78
2022/07/06 04:38:14;;;;;;;7.80;4.78;;;;;;;16.10;73.57;93379.75;2067088;69;20141;-78
2022/07/06 04:40:40;;;;;;;8.55;4.63;;;;;;;16.13;73.23;93386.28;2068595;69;20212;-76
2022/07/06 04:43:10;;;;;;;6.28;3.80;;;;;;;16.23;72.81;93392.47;2069204;69;20236;-75
2022/07/06 04:45:36;;;;;;;6.97;5.15;;;;;;;16.06;73.61;93393.75;2069925;69;20154;-77
2022/07/06 04:48:03;;;;;;;6.18;4.53;;;;;;;16.13;73.43;93391.97;2067390;69;20323;-75
2022/07/06 04:50:31;;;;;;;5.50;4.30;;;;;;;16.19;73.47;93398.69;2068703;69;20151;-77
2022/07/06 04:53:00;;;;;;;6.63;3.97;;;;;;;16.24;73.02;93389.00;2068066;69;20237;-76
2022/07/06 04:55:26;;;;;;;6.00;4.00;;;;;;;16.27;72.92;93387.72;2068095;69;20203;-77
2022/07/06 04:57:52;;;;;;;9.70;4.45;;;;;;;16.32;72.99;93391.50;2067995;69;20604;-79
2022/07/06 05:00:19;;;;;;;7.45;4.13;;;;;;;16.34;73.09;93388.03;2067980;69;20700;-76
2022/07/06 05:02:46;;;;;;;6.32;4.10;;;;;;;16.37;73.03;93383.94;2068411;69;20530;-75
2022/07/06 05:05:12;;;;;;;7.03;4.25;;;;;;;16.21;74.09;93390.25;2068604;69;20155;-75
2022/07/06 05:07:39;;;;;;;5.25;3.78;;;;;;;16.30;73.53;93382.13;2067864;69;20167;-80
2022/07/06 05:10:08;;;;;;;8.55;4.43;;;;;;;16.30;73.87;93384.97;2067780;69;20188;-78
2022/07/06 05:12:34;;;;;;;6.60;3.95;;;;;;;16.46;73.37;93382.97;2067757;69;20287;-76
2022/07/06 05:14:59;;;;;;;5.88;3.97;;;;;;;16.48;73.55;93380.22;2067808;69;20236;-75
2022/07/06 05:17:26;;;;;;;9.20;4.05;;;;;;;16.60;73.00;93377.25;2067687;69;20184;-75
2022/07/06 05:19:52;;;;;;;5.97;3.75;;;;;;;16.72;72.40;93377.84;2067903;69;20183;-76
2022/07/06 05:22:19;;;;;;;8.75;4.22;;;;;;;16.45;72.62;93378.66;2067843;69;20148;-76
2022/07/06 05:24:45;;;;;;;7.32;4.10;;;;;;;16.09;74.42;93381.13;2065348;69;20219;-76
2022/07/06 05:27:11;;;;;;;7.38;3.90;;;;;;;16.41;73.30;93375.59;2068080;69;20153;-76
2022/07/06 05:29:37;;;;;;;6.65;3.70;;;;;;;16.69;71.66;93379.13;2065324;69;20180;-80
2022/07/06 05:32:03;;;;;;;7.07;3.70;;;;;;;16.53;73.25;93385.47;2068524;69;20227;-76
2022/07/06 05:34:29;;;;;;;5.35;3.70;;;;;;;16.71;72.68;93384.88;2067838;69;20140;-76
2022/07/06 05:36:55;;;;;;;7.00;3.60;;;;;;;16.82;71.69;93380.47;2064545;69;20523;-75
2022/07/06 05:39:22;;;;;;;8.90;3.95;;;;;;;16.85;71.95;93382.75;2068319;69;20582;-75
2022/07/06 05:41:48;;;;;;;8.60;3.45;;;;;;;16.89;71.48;93379.38;2068511;69;20168;-76
2022/07/06 05:44:15;;;;;;;6.90;3.92;;;;;;;16.94;71.84;93387.47;2068112;69;20148;-77
2022/07/06 05:46:41;;;;;;;7.43;3.60;;;;;;;16.93;71.43;93386.00;2067898;69;20639;-78
2022/07/06 05:51:54;;;;;;;7.43;4.45;;;;;;;16.88;71.78;93389.28;2067309;69;20256;-76
2022/07/06 05:54:21;;;;;;;8.07;4.68;;;;;;;16.91;70.82;93390.88;2068505;69;20182;-74
2022/07/06 05:56:47;;;;;;;7.88;4.40;;;;;;;16.99;71.04;93388.41;2065896;69;20167;-76
2022/07/06 05:59:14;;;;;;;13.98;4.30;;;;;;;16.99;71.54;93388.41;2068756;69;20938;-76
2022/07/06 06:01:40;;;;;;;7.80;4.10;;;;;;;16.97;72.14;93385.47;2062777;69;20202;-77
2022/07/06 06:04:11;;;;;;;9.00;3.97;;;;;;;17.17;69.44;93388.53;2065973;69;20172;-76
2022/07/06 06:06:38;;;;;;;3.75;3.35;;;;;;;17.20;70.56;93390.13;2065941;69;20238;-75
2022/07/06 06:09:04;;;;;;;8.30;3.70;;;;;;;17.11;71.67;93379.72;2069248;69;20243;-76
2022/07/06 06:11:29;;;;;;;7.70;3.90;;;;;;;17.23;69.64;93380.31;2068796;69;20171;-78
2022/07/06 06:13:55;;;;;;;5.93;3.50;;;;;;;17.23;71.17;93381.03;2068268;69;20145;-74
2022/07/06 06:16:21;;;;;;;8.88;3.88;;;;;;;17.29;70.57;93372.03;2068735;69;20198;-74
2022/07/06 06:18:47;;;;;;;4.38;3.40;;;;;;;17.28;70.97;93371.31;2066210;69;20580;-74
2022/07/06 06:21:12;;;;;;;5.43;3.33;;;;;;;17.35;70.64;93371.59;2068948;69;20265;-76
2022/07/06 06:23:38;;;;;;;7.93;4.15;;;;;;;17.48;70.32;93382.16;2068897;69;20336;-74
2022/07/06 06:26:04;;;;;;;6.60;3.60;;;;;;;17.56;69.31;93376.84;2068718;69;20504;-73
2022/07/06 06:28:29;;;;;;;5.70;3.67;;;;;;;17.69;69.37;93373.19;2067784;69;20163;-77
2022/07/06 06:30:55;;;;;;;8.13;3.53;;;;;;;17.69;70.13;93373.19;2068846;69;20140;-78
2022/07/06 06:33:21;;;;;;;3.60;3.30;;;;;;;17.64;70.92;93367.91;2067402;69;20645;-78
2022/07/06 06:35:48;;;;;;;7.03;3.90;;;;;;;17.69;70.73;93366.75;2068698;69;20176;-77
2022/07/06 06:38:15;;;;;;;6.53;3.70;;;;;;;17.88;68.93;93371.91;2068449;69;20239;-76
2022/07/06 06:40:41;;;;;;;5.35;3.67;;;;;;;17.99;69.35;93365.25;2068587;69;20152;-77
2022/07/06 06:43:06;;;;;;;5.60;4.07;;;;;;;18.10;67.61;93360.00;2068693;69;20162;-74
2022/07/06 06:45:36;;;;;;;7.63;3.63;;;;;;;18.20;66.75;93355.50;2066649;69;20145;-74
2022/07/06 06:48:04;;;;;;;4.20;3.20;;;;;;;18.32;67.25;93360.97;2067533;69;20140;-76
2022/07/06 06:50:31;;;;;;;4.47;3.42;;;;;;;18.44;66.36;93358.63;2067342;69;20145;-76
2022/07/06 06:52:56;;;;;;;4.80;3.60;;;;;;;18.45;68.67;93347.97;2067970;69;20183;-77
2022/07/06 06:55:23;;;;;;;4.05;3.60;;;;;;;18.62;67.68;93349.38;2066805;69;20139;-80
2022/07/06 06:57:49;;;;;;;51.00;14.57;;;;;;;18.71;67.03;93345.50;2068496;69;20176;-77
2022/07/06 07:00:15;;;;;;;83.53;44.03;;;;;;;18.75;65.99;93343.56;2068646;69;20153;-77
2022/07/06 07:02:41;;;;;;;6.38;4.75;;;;;;;18.79;66.18;93351.56;2066331;69;20137;-75
2022/07/06 07:05:07;;;;;;;6.68;4.85;;;;;;;18.82;65.47;93343.78;2064860;69;20164;-77
2022/07/06 07:07:33;;;;;;;31.17;8.93;;;;;;;18.97;66.30;93351.56;2064347;69;20157;-75
2022/07/06 07:10:02;;;;;;;30.77;15.13;;;;;;;19.04;67.15;93350.41;2064225;69;20180;-78
2022/07/06 07:12:28;;;;;;;7.78;4.10;;;;;;;19.02;67.45;93347.47;2067704;69;20249;-78
2022/07/06 07:14:54;;;;;;;5.15;3.80;;;;;;;19.09;66.13;93343.47;2068310;69;20156;-76
2022/07/06 07:17:20;;;;;;;4.43;3.72;;;;;;;19.13;66.77;93348.59;2068331;69;20152;-75
2022/07/06 07:19:46;;;;;;;6.95;3.60;;;;;;;19.16;67.76;93341.59;2068297;69;20156;-76
2022/07/06 07:22:11;;;;;;;3.97;3.40;;;;;;;19.25;67.06;93351.94;2064489;69;20589;-75
2022/07/06 07:24:37;;;;;;;4.25;3.40;;;;;;;19.35;67.36;93349.47;2068086;69;20192;-76
2022/07/06 07:27:03;;;;;;;4.80;3.47;;;;;;;19.49;67.33;93346.41;2068018;69;20183;-76
2022/07/06 07:29:29;;;;;;;7.38;3.75;;;;;;;19.43;67.58;93337.63;2064727;69;20164;-76
2022/07/06 07:31:54;;;;;;;6.82;3.55;;;;;;;19.62;67.90;93336.22;2068138;69;20149;-76
2022/07/06 07:34:20;;;;;;;8.15;4.00;;;;;;;19.62;68.38;93339.09;2064785;69;20242;-76
2022/07/06 07:36:46;;;;;;;4.78;3.50;;;;;;;19.74;67.43;93336.66;2064673;69;20172;-76
2022/07/06 07:39:12;;;;;;;7.82;4.50;;;;;;;19.87;67.13;93335.00;2068226;69;20141;-76
2022/07/06 07:41:37;;;;;;;6.18;3.65;;;;;;;20.03;66.13;93330.59;2065214;69;20153;-78
2022/07/06 07:44:04;;;;;;;5.80;4.05;;;;;;;20.06;66.09;93320.69;2068266;69;20154;-76
2022/07/06 07:46:29;;;;;;;6.25;3.38;;;;;;;20.15;65.72;93315.25;2068350;69;20148;-76
2022/07/06 07:48:55;;;;;;;8.57;3.95;;;;;;;20.20;66.60;93319.72;2068285;69;20160;-78
2022/07/06 07:51:21;;;;;;;6.85;3.88;;;;;;;20.10;62.67;93307.94;2064794;69;20577;-75
2022/07/06 07:53:47;;;;;;;5.15;4.03;;;;;;;20.31;62.26;93304.41;2064994;69;20144;-75
2022/07/06 07:56:13;;;;;;;4.60;3.70;;;;;;;20.02;61.73;93306.28;2068244;69;20504;-74
2022/07/06 07:58:38;;;;;;;6.95;4.00;;;;;;;20.10;61.51;93307.94;2068204;69;20161;-74
2022/07/06 08:01:05;;;;;;;4.45;3.60;;;;;;;20.36;61.62;93291.69;2064879;69;20142;-74
2022/07/06 08:03:31;;;;;;;6.22;4.00;;;;;;;20.67;62.45;93298.47;2068166;69;20150;-76
2022/07/06 08:05:57;;;;;;;3.78;3.45;;;;;;;20.66;61.48;93292.00;2068246;69;20177;-75
2022/07/06 08:08:23;;;;;;;5.95;3.63;;;;;;;20.90;60.71;93291.34;2068239;69;20144;-78
2022/07/06 08:10:49;;;;;;;3.97;3.45;;;;;;;21.07;61.70;93287.56;2068233;69;20168;-77
2022/07/06 08:13:14;;;;;;;3.92;3.50;;;;;;;21.35;60.63;93290.63;2068176;69;20151;-76
2022/07/06 08:15:41;;;;;;;3.33;3.03;;;;;;;21.49;59.49;93291.03;2068403;69;20133;-80
2022/07/06 08:18:07;;;;;;;4.78;3.13;;;;;;;21.63;57.10;93287.84;2068882;69;20151;-77
2022/07/06 08:20:32;;;;;;;4.07;3.10;;;;;;;21.75;55.55;93282.47;2068955;69;20141;-77
2022/07/06 08:22:58;;;;;;;6.53;2.97;;;;;;;22.15;54.93;93287.16;2065645;69;20140;-77
2022/07/06 08:25:23;;;;;;;3.97;3.10;;;;;;;22.48;54.74;93288.75;2068655;69;20160;-76
2022/07/06 08:27:49;;;;;;;4.15;3.20;;;;;;;22.80;55.87;93280.22;2068701;69;20152;-77
2022/07/06 08:30:15;;;;;;;4.43;3.05;;;;;;;22.78;52.72;93275.16;2068736;69;20137;-75
2022/07/06 08:32:42;;;;;;;3.58;2.90;;;;;;;23.58;54.07;93274.84;2068728;69;20180;-76
2022/07/06 08:35:09;;;;;;;3.70;3.30;;;;;;;23.46;51.04;93279.59;2068787;69;20203;-80
2022/07/06 08:37:34;;;;;;;3.67;2.80;;;;;;;23.73;50.61;93275.94;2068598;69;20190;-79
2022/07/06 08:40:01;;;;;;;3.28;2.97;;;;;;;23.44;50.46;93276.69;2068724;69;20164;-77
2022/07/06 08:42:30;;;;;;;5.43;3.40;;;;;;;24.07;48.71;93273.00;2068804;69;20612;-78
2022/07/06 08:45:00;;;;;;;3.53;3.00;;;;;;;24.26;48.43;93273.34;2068679;69;20147;-77
2022/07/06 08:47:27;;;;;;;5.20;2.80;;;;;;;24.44;46.85;93270.13;2065308;69;20143;-74
2022/07/06 08:49:54;;;;;;;3.55;2.72;;;;;;;24.79;45.02;93265.69;2065270;69;20152;-75
2022/07/06 08:52:22;;;;;;;4.55;2.80;;;;;;;24.50;46.17;93267.34;2068602;69;20141;-78
2022/07/06 08:54:48;;;;;;;4.20;2.80;;;;;;;25.12;46.66;93269.13;2068840;69;20151;-78
2022/07/06 08:57:14;;;;;;;2.80;2.60;;;;;;;24.95;45.27;93268.09;2068796;69;20152;-77
2022/07/06 08:59:40;;;;;;;3.20;2.90;;;;;;;25.38;46.00;93263.72;2068678;69;20156;-75
2022/07/06 09:02:06;;;;;;;3.67;2.92;;;;;;;25.99;46.09;93261.69;2068558;69;20137;-76
2022/07/06 09:04:35;;;;;;;3.33;2.40;;;;;;;26.47;45.43;93266.56;2068714;69;20512;-75
2022/07/06 09:07:01;;;;;;;4.63;2.63;;;;;;;26.66;42.38;93260.97;2068525;69;20172;-75
2022/07/06 09:09:30;;;;;;;3.05;2.80;;;;;;;27.01;45.47;93262.00;2068601;69;20600;-75
2022/07/06 09:11:57;;;;;;;4.22;2.75;;;;;;;26.60;43.31;93259.47;2068613;69;20144;-79
2022/07/06 09:14:22;;;;;;;4.40;2.42;;;;;;;27.71;42.03;93260.31;2068677;69;20179;-79
2022/07/06 09:17:01;;;;;;;8.98;2.78;;;;;;;27.51;41.90;93261.66;2068570;69;20149;-78
2022/07/06 09:19:27;;;;;;;6.82;2.45;;;;;;;28.12;41.17;93258.38;2068564;69;20194;-75
2022/07/06 09:21:53;;;;;;;7.63;2.60;;;;;;;28.39;42.09;93258.50;2068487;69;20144;-77
2022/07/06 09:24:19;;;;;;;2.53;2.25;;;;;;;28.64;41.58;93262.91;2068539;69;20160;-77
2022/07/06 09:26:47;;;;;;;2.70;2.10;;;;;;;28.60;36.45;93257.81;2068370;69;20206;-76
2022/07/06 09:29:14;;;;;;;3.15;1.77;;;;;;;28.78;39.21;93262.91;2068525;69;20132;-75
2022/07/06 09:31:40;;;;;;;5.60;2.30;;;;;;;29.13;39.61;93266.56;2068507;69;20531;-75
2022/07/06 09:34:09;;;;;;;3.22;2.38;;;;;;;29.35;37.34;93265.13;2068545;69;20142;-75
2022/07/06 09:36:49;;;;;;;6.40;2.10;;;;;;;28.95;35.05;93265.81;2067825;69;20214;-76
2022/07/06 09:39:24;;;;;;;2.90;1.98;;;;;;;29.51;35.17;93256.41;2065267;69;20156;-75
2022/07/06 09:41:55;;;;;;;2.17;1.65;;;;;;;29.64;32.81;93254.22;2068548;69;20148;-76
2022/07/06 09:44:28;;;;;;;1.67;1.10;;;;;;;29.49;31.34;93259.31;2068630;69;20141;-76
2022/07/06 09:47:04;;;;;;;2.22;1.52;;;;;;;29.33;29.66;93254.25;2065156;69;20501;-75
2022/07/06 09:49:30;;;;;;;3.83;1.60;;;;;;;29.35;29.23;93245.53;2068621;69;20249;-74
2022/07/06 09:52:01;;;;;;;4.90;1.50;;;;;;;29.55;30.88;93244.84;2065070;69;20153;-74
2022/07/06 09:54:27;;;;;;;2.70;1.60;;;;;;;29.42;31.41;93248.47;2065296;69;20315;-74
2022/07/06 09:56:54;;;;;;;7.10;1.50;;;;;;;29.67;28.80;93249.16;2068447;69;20232;-75
2022/07/06 09:59:22;;;;;;;2.13;1.20;;;;;;;30.45;28.38;93250.31;2068466;69;20157;-75
2022/07/06 10:01:51;;;;;;;3.05;1.00;;;;;;;30.95;29.55;93245.69;2068402;69;20160;-79
2022/07/06 10:04:21;;;;;;;3.42;1.33;;;;;;;30.24;25.12;93246.81;2068623;69;20149;-79
2022/07/06 10:06:47;;;;;;;2.55;1.23;;;;;;;30.83;27.12;93234.84;2068355;69;20140;-78
2022/07/06 10:09:14;;;;;;;4.55;1.20;;;;;;;31.36;28.55;93243.19;2068512;69;20136;-77
2022/07/06 10:11:47;;;;;;;3.15;1.52;;;;;;;31.46;28.67;93244.56;2065067;69;20160;-76
2022/07/06 10:14:16;;;;;;;3.72;1.55;;;;;;;31.58;27.96;93239.34;2068608;69;20141;-77
2022/07/06 10:16:43;;;;;;;3.47;1.33;;;;;;;31.28;27.64;93242.53;2068388;69;20140;-74
2022/07/06 10:19:09;;;;;;;2.40;1.20;;;;;;;31.97;28.54;93236.03;2065110;69;20156;-73
2022/07/06 10:21:36;;;;;;;2.70;1.23;;;;;;;31.08;24.45;93234.69;2068339;69;20585;-76
2022/07/06 10:24:04;;;;;;;3.33;1.35;;;;;;;32.28;26.75;93229.84;2068435;69;20153;-75
2022/07/06 10:26:31;;;;;;;2.25;1.00;;;;;;;30.66;24.83;93227.69;2068400;69;20148;-74
2022/07/06 10:28:59;;;;;;;0.90;0.90;;;;;;;31.12;22.91;93226.66;2065084;69;20669;-74
2022/07/06 10:31:26;;;;;;;2.55;0.90;;;;;;;31.26;22.18;93222.91;2068386;69;20152;-74
2022/07/06 10:33:53;;;;;;;1.67;1.10;;;;;;;32.32;24.51;93215.97;2068041;69;20160;-76
2022/07/06 10:36:19;;;;;;;1.33;0.80;;;;;;;33.41;24.28;93223.13;2070759;69;20136;-77
2022/07/06 10:38:49;;;;;;;3.53;1.20;;;;;;;32.89;23.24;93217.34;2071301;69;20516;-76
2022/07/06 10:41:15;;;;;;;3.28;1.10;;;;;;;32.25;24.53;93217.50;2071707;69;20205;-75
2022/07/06 10:43:45;;;;;;;1.73;1.10;;;;;;;33.17;24.37;93224.25;2071631;69;20155;-76
2022/07/06 10:46:14;;;;;;;1.38;1.10;;;;;;;33.29;23.92;93218.22;2071705;69;20243;-75
2022/07/06 10:48:44;;;;;;;2.90;1.00;;;;;;;33.31;22.41;93213.06;2071637;69;20175;-76
2022/07/06 10:51:12;;;;;;;1.65;1.00;;;;;;;33.74;21.28;93223.28;2068269;69;20603;-74
2022/07/06 10:53:40;;;;;;;2.53;1.10;;;;;;;34.04;21.00;93219.06;2068287;69;20132;-74
2022/07/06 10:56:08;;;;;;;1.23;0.90;;;;;;;34.02;20.20;93210.38;2071525;69;20168;-75
2022/07/06 10:58:45;;;;;;;2.45;1.00;;;;;;;34.71;21.49;93216.97;2071580;69;20235;-73
2022/07/06 11:01:12;;;;;;;1.20;1.00;;;;;;;34.19;19.43;93207.84;2071455;69;20227;-75
2022/07/06 11:03:46;;;;;;;2.28;1.00;;;;;;;35.64;19.16;93211.09;2071353;69;20180;-75
2022/07/06 11:06:21;;;;;;;2.25;1.02;;;;;;;36.03;17.47;93196.16;2071435;69;20140;-75
2022/07/06 11:08:56;;;;;;;1.80;0.90;;;;;;;38.48;15.63;93208.13;2071406;69;20148;-75
2022/07/06 11:11:31;;;;;;;1.08;0.90;;;;;;;40.58;16.09;93208.38;2071381;69;20588;-75
2022/07/06 11:14:01;;;;;;;0.90;0.90;;;;;;;40.31;16.46;93212.50;2071477;69;20144;-76
2022/07/06 11:16:30;;;;;;;3.47;0.90;;;;;;;42.51;13.79;93207.03;2068135;69;20140;-75
2022/07/06 11:19:04;;;;;;;1.15;0.80;;;;;;;42.81;13.33;93213.59;2071489;69;20128;-75
2022/07/06 11:21:56;;;;;;;3.30;0.90;;;;;;;44.25;13.79;93206.19;2071489;69;20159;-78
2022/07/06 11:24:33;;;;;;;1.15;0.70;;;;;;;44.63;12.11;93206.13;2071525;69;20152;-75
2022/07/06 11:27:01;;;;;;;2.05;0.80;;;;;;;43.83;13.50;93201.25;2071577;69;20148;-75
2022/07/06 11:29:28;;;;;;;2.35;0.70;;;;;;;46.02;13.08;93200.91;2071532;69;20213;-73
2022/07/06 11:31:58;;;;;;;1.10;0.80;;;;;;;46.37;11.27;93202.25;2071303;69;20176;-75
2022/07/06 11:34:27;;;;;;;1.50;0.80;;;;;;;44.82;11.58;93194.53;2071333;69;20152;-79
2022/07/06 11:37:09;;;;;;;2.03;0.70;;;;;;;48.22;11.48;93192.69;2071390;69;20140;-78